Latest Weather Observations for Creal Reef

IDQ60801

Issued at 10:02 am EST Thursday 5 March 2015 (issued every 30 minutes, with the page automatically refreshed every 10 minutes)

About weather observations | Map of weather stations | Latest weather observations for QLD | Other Formats
Station Details ID: 200736 Name: CREAL REEF Lat: -20.53 Lon: 150.38 Height: 1.7 m
Data from the previous 72 hours. | See also: Recent months for locations in Queensland
Date/Time
EST
Temp
°C
App
Temp
°C
Dew
Point
Rel
Hum
%
Delta-T
°C
Wind Press
QNH
hPa
Press
MSL
hPa
Rain
since 9 am
mm
Dir
 
Spd
km/h
Gust
km/h
Spd
kts
Gust
kts
05/10:00am 27.1 - - - - E 17 20 9 11 1010.9 - -
05/09:30am 27.0 - - - - ESE 19 20 10 11 1010.6 - -
05/09:20am 27.1 - - - - ESE 19 - 10 - - 1010.5 -
05/09:00am 27.0 - - - - ESE 19 20 10 11 1010.5 - -
05/08:30am 27.0 - - - - ESE 19 22 10 12 1010.4 - -
05/08:20am 27.0 - - - - ESE 20 - 11 - - 1010.2 -
05/08:00am 27.0 - - - - ESE 22 24 12 13 1010.2 - -
05/07:30am 26.9 - - - - E 22 24 12 13 1010.1 - -
05/07:20am 26.9 - - - - ESE 22 - 12 - - 1009.8 -
05/07:00am 26.8 - - - - ESE 20 24 11 13 1009.7 - -
05/06:30am 26.7 - - - - ESE 20 24 11 13 1009.3 - -
05/06:20am 26.6 - - - - ESE 20 - 11 - - 1009.2 -
05/06:00am 26.6 - - - - ESE 22 24 12 13 1008.8 - -
05/05:30am 26.6 - - - - ESE 22 26 12 14 1008.5 - -
05/05:20am 26.4 - - - - SE 22 - 12 - - 1008.4 -
05/05:00am 26.4 - - - - SE 24 28 13 15 1008.4 - -
05/04:30am 26.4 - - - - ESE 22 26 12 14 1008.4 - -
05/04:20am 26.3 - - - - ESE 22 - 12 - - 1008.4 -
05/04:00am 26.4 - - - - SE 22 26 12 14 1008.4 - -
05/03:30am 26.4 - - - - SSE 24 26 13 14 1008.3 - -
05/03:20am 26.4 - - - - SSE 22 - 12 - - 1008.3 -
05/03:00am 26.6 - - - - SSE 22 24 12 13 1008.5 - -
05/02:30am 26.7 - - - - ESE 24 28 13 15 1008.9 - -
05/02:20am 26.6 - - - - SE 26 - 14 - - 1008.9 -
05/02:00am 26.7 - - - - SE 24 28 13 15 1009.1 - -
05/01:30am 26.6 - - - - SE 24 28 13 15 1009.3 - -
05/01:20am 26.7 - - - - SE 26 - 14 - - 1009.4 -
05/01:00am 26.6 - - - - SE 24 28 13 15 1009.7 - -
05/12:30am 26.8 - - - - SE 24 28 13 15 1010.2 - -
05/12:20am 26.8 - - - - SE 24 - 13 - - 1010.3 -
05/12:00am 26.9 - - - - SE 24 28 13 15 1010.5 - -
 
Date/Time
EST
Temp
°C
App
Temp
°C
Dew
Point
Rel
Hum
%
Delta-T
°C
Wind Press
QNH
hPa
Press
MSL
hPa
Rain
since 9 am
mm
Dir
 
Spd
km/h
Gust
km/h
Spd
kts
Gust
kts
04/11:30pm 26.9 - - - - SE 24 28 13 15 1010.6 - -
04/11:20pm 26.8 - - - - SE 24 - 13 - - 1010.6 -
04/11:00pm 27.0 - - - - ESE 24 28 13 15 1010.9 - -
04/10:30pm 27.0 - - - - SE 26 30 14 16 1011.0 - -
04/10:20pm 27.0 - - - - SE 26 - 14 - - 1011.0 -
04/10:00pm 27.0 - - - - SE 26 30 14 16 1011.1 - -
04/09:30pm 27.1 - - - - ESE 28 32 15 17 1011.2 - -
04/09:20pm 27.2 - - - - SE 28 - 15 - - 1011.1 -
04/09:00pm 27.1 - - - - SE 28 32 15 17 1010.9 - -
04/08:30pm 27.1 - - - - ESE 28 32 15 17 1010.8 - -
04/08:20pm 27.1 - - - - ESE 28 - 15 - - 1010.7 -
04/08:00pm 27.1 - - - - SE 26 30 14 16 1010.6 - -
04/07:30pm 27.2 - - - - SE 28 32 15 17 1010.3 - -
04/07:20pm 27.2 - - - - SE 28 - 15 - - 1010.1 -
04/07:00pm 27.1 - - - - ESE 30 33 16 18 1009.9 - -
04/06:30pm 27.2 - - - - SE 28 32 15 17 1009.8 - -
04/06:20pm 27.0 - - - - SE 24 - 13 - - 1009.6 -
04/06:00pm 26.9 - - - - SE 26 30 14 16 1009.5 - -
04/05:30pm 27.0 - - - - SSE 24 28 13 15 1009.3 - -
04/05:20pm 27.1 - - - - SE 24 - 13 - - 1009.4 -
04/05:00pm 27.4 - - - - SE 22 24 12 13 1009.3 - -
04/04:30pm 26.9 - - - - SE 22 26 12 14 1009.3 - -
04/04:20pm 26.6 - - - - SE 24 - 13 - - 1009.3 -
04/04:00pm 27.0 - - - - SE 26 32 14 17 1009.3 - -
04/03:30pm 27.2 - - - - SE 22 28 12 15 1009.3 - -
04/03:20pm 27.0 - - - - SE 26 - 14 - - 1009.3 -
04/03:00pm 26.5 - - - - ESE 30 33 16 18 1009.5 - -
04/02:30pm 27.3 - - - - ESE 22 24 12 13 1009.8 - -
04/02:20pm 27.1 - - - - E 19 - 10 - - 1009.8 -
04/02:00pm 27.4 - - - - ESE 28 32 15 17 1010.0 - -
04/01:30pm 27.6 - - - - ESE 30 35 16 19 1010.3 - -
04/01:20pm 27.4 - - - - ESE 30 - 16 - - 1010.2 -
04/01:00pm 27.3 - - - - SE 30 33 16 18 1010.5 - -
04/12:30pm 27.4 - - - - SE 28 33 15 18 1010.5 - -
04/12:20pm 27.4 - - - - ESE 26 - 14 - - 1010.6 -
04/12:00pm 27.4 - - - - ESE 28 30 15 16 1010.9 - -
04/11:30am 27.3 - - - - SE 30 33 16 18 1011.1 - -
04/11:20am 27.3 - - - - SE 30 - 16 - - 1011.1 -
04/11:00am 27.2 - - - - SE 32 35 17 19 1011.3 - -
04/10:30am 27.2 - - - - SE 32 37 17 20 1011.5 - -
04/10:20am 27.2 - - - - SE 32 - 17 - - 1011.4 -
04/10:00am 27.2 - - - - ESE 32 35 17 19 1011.4 - -
04/09:30am 27.1 - - - - SE 32 35 17 19 1011.4 - -
04/09:20am 27.1 - - - - SE 30 - 16 - - 1011.3 -
04/09:00am 27.3 - - - - ESE 33 37 18 20 1011.3 - -
04/08:30am 27.0 - - - - SE 33 37 18 20 1011.2 - -
04/08:20am 27.0 - - - - SE 30 - 16 - - 1010.9 -
04/08:00am 27.1 - - - - SE 30 35 16 19 1010.8 - -
04/07:30am 26.9 - - - - SE 32 35 17 19 1010.5 - -
04/07:20am 26.9 - - - - SE 32 - 17 - - 1010.3 -
04/07:00am 27.0 - - - - SE 30 35 16 19 1010.2 - -
04/06:30am 26.7 - - - - SE 32 35 17 19 1010.0 - -
04/06:20am 26.7 - - - - ESE 32 - 17 - - 1009.8 -
04/06:00am 26.7 - - - - ESE 32 37 17 20 1009.7 - -
04/05:30am 26.7 - - - - ESE 35 39 19 21 1009.5 - -
04/05:20am 26.7 - - - - ESE 35 - 19 - - 1009.3 -
04/05:00am 26.6 - - - - SE 33 39 18 21 1009.3 - -
04/04:30am 26.8 - - - - SE 33 37 18 20 1009.1 - -
04/04:20am 26.7 - - - - ESE 35 - 19 - - 1009.1 -
04/04:00am 26.6 - - - - ESE 33 37 18 20 1009.0 - -
04/03:30am 26.4 - - - - SE 33 41 18 22 1009.0 - -
04/03:20am 25.9 - - - - SE 24 - 13 - - 1009.2 -
04/03:17am 25.6 - - - - ESE 28 46 15 25 1009.3 - -
04/03:00am 25.2 - - - - SE 28 35 15 19 1009.3 - -
04/02:51am 24.7 - - - - SSE 28 46 15 25 1009.5 - -
04/02:44am 24.3 - - - - SSE 37 46 20 25 1009.6 - -
04/02:30am 25.1 - - - - ESE 39 44 21 24 1009.8 - -
04/02:20am 25.3 - - - - ESE 39 - 21 - - 1009.7 -
04/02:00am 26.6 - - - - SE 32 35 17 19 1009.8 - -
04/01:30am 26.5 - - - - SE 32 35 17 19 1010.3 - -
04/01:20am 26.5 - - - - SE 33 - 18 - - 1010.4 -
04/01:00am 26.5 - - - - SE 37 43 20 23 1010.7 - -
04/12:30am 26.9 - - - - SE 37 44 20 24 1011.1 - -
04/12:20am 26.9 - - - - SE 35 - 19 - - 1011.1 -
04/12:00am 26.8 - - - - SE 35 41 19 22 1011.4 - -
 
Date/Time
EST
Temp
°C
App
Temp
°C
Dew
Point
Rel
Hum
%
Delta-T
°C
Wind Press
QNH
hPa
Press
MSL
hPa
Rain
since 9 am
mm
Dir
 
Spd
km/h
Gust
km/h
Spd
kts
Gust
kts
03/11:30pm 26.9 - - - - SE 35 43 19 23 1011.6 - -
03/11:20pm 26.9 - - - - SE 35 - 19 - - 1011.5 -
03/11:00pm 26.9 - - - - SE 39 46 21 25 1011.5 - -
03/10:30pm 27.0 - - - - SE 37 43 20 23 1011.6 - -
03/10:20pm 27.0 - - - - SE 39 - 21 - - 1011.5 -
03/10:00pm 27.0 - - - - SE 39 46 21 25 1011.5 - -
03/09:30pm 27.0 - - - - SE 37 43 20 23 1011.6 - -
03/09:20pm 27.1 - - - - SE 39 - 21 - - 1011.5 -
03/09:00pm 27.3 - - - - SE 39 44 21 24 1011.4 - -
03/08:30pm 27.2 - - - - SE 41 46 22 25 1011.2 - -
03/08:20pm 27.3 - - - - SE 41 - 22 - - 1010.9 -
03/08:00pm 27.2 - - - - SE 41 46 22 25 1010.7 - -
03/07:30pm 27.2 - - - - SE 43 46 23 25 1010.4 - -
03/07:20pm 27.2 - - - - SE 41 - 22 - - 1010.3 -
03/07:00pm 27.2 - - - - SSE 39 46 21 25 1010.2 - -
03/06:30pm 27.3 - - - - SE 37 44 20 24 1009.8 - -
03/06:20pm 27.3 - - - - SSE 39 - 21 - - 1009.6 -
03/06:00pm 27.3 - - - - SSE 37 44 20 24 1009.7 - -
03/05:30pm 27.3 - - - - SE 37 43 20 23 1009.3 - -
03/05:20pm 27.3 - - - - SE 37 - 20 - - 1009.2 -
03/05:00pm 27.3 - - - - SSE 39 44 21 24 1009.0 - -
03/04:30pm 27.4 - - - - SSE 37 43 20 23 1009.1 - -
03/04:20pm 27.5 - - - - SSE 41 - 22 - - 1009.1 -
03/04:00pm 27.5 - - - - SSE 39 44 21 24 1009.1 - -
03/03:30pm 27.6 - - - - SSE 41 46 22 25 1009.3 - -
03/03:20pm 27.5 - - - - SSE 39 - 21 - - 1009.2 -
03/03:00pm 27.4 - - - - SSE 39 46 21 25 1009.3 - -
03/02:30pm 27.5 - - - - SSE 37 44 20 24 1009.5 - -
03/02:20pm 27.5 - - - - SSE 35 - 19 - - 1009.5 -
03/02:00pm 27.5 - - - - SSE 35 44 19 24 1009.6 - -
03/01:30pm 27.4 - - - - SSE 32 43 17 23 1009.8 - -
03/01:20pm 27.3 - - - - SSE 32 - 17 - - 1009.9 -
03/01:00pm 27.3 - - - - SSE 32 41 17 22 1010.2 - -
03/12:30pm 27.3 - - - - SSE 33 41 18 22 1010.7 - -
03/12:20pm 27.3 - - - - SSE 32 - 17 - - 1010.7 -
03/12:00pm 27.4 - - - - SSE 32 41 17 22 1011.0 - -
03/11:30am 27.3 - - - - SSE 33 41 18 22 1011.3 - -
03/11:20am 27.4 - - - - SSE 32 - 17 - - 1011.4 -
03/11:00am 27.5 - - - - SSE 33 39 18 21 1011.5 - -
03/10:30am 27.4 - - - - SSE 28 35 15 19 1011.6 - -
03/10:20am 27.4 - - - - SSE 32 - 17 - - 1011.5 -
03/10:00am 27.4 - - - - SSE 32 39 17 21 1011.7 - -
03/09:30am 27.4 - - - - SSE 35 41 19 22 1011.5 - -
03/09:20am 27.4 - - - - SSE 33 - 18 - - 1011.3 -
03/09:00am 27.2 - - - - SE 30 39 16 21 1011.4 - -
03/08:30am 26.8 - - - - SSE 30 35 16 19 1011.3 - -
03/08:20am 27.2 - - - - SE 30 - 16 - - 1011.2 -
03/08:00am 27.3 - - - - SSE 32 39 17 21 1011.2 - -
03/07:30am 27.2 - - - - SSE 35 41 19 22 1011.0 - -
03/07:20am 27.0 - - - - SE 33 - 18 - - 1010.7 -
03/07:00am 26.9 - - - - SE 35 41 19 22 1010.7 - -
03/06:30am 27.0 - - - - SE 35 41 19 22 1010.3 - -
03/06:20am 26.8 - - - - SE 33 - 18 - - 1010.2 -
03/06:00am 26.7 - - - - SE 33 37 18 20 1010.1 - -
03/05:30am 26.6 - - - - SE 37 43 20 23 1009.8 - -
03/05:20am 26.7 - - - - SE 37 - 20 - - 1009.7 -
03/05:00am 26.8 - - - - SE 35 41 19 22 1009.7 - -
03/04:30am 26.6 - - - - SE 37 43 20 23 1009.5 - -
03/04:20am 26.5 - - - - SE 37 - 20 - - 1009.4 -
03/04:00am 26.5 - - - - SE 37 43 20 23 1009.3 - -
03/03:30am 26.5 - - - - ESE 32 35 17 19 1009.3 - -
03/03:20am 26.4 - - - - SE 32 - 17 - - 1009.2 -
03/03:00am 26.4 - - - - SE 33 39 18 21 1009.0 - -
03/02:30am 26.6 - - - - SE 37 43 20 23 1009.1 - -
03/02:20am 26.3 - - - - SE 33 - 18 - - 1009.2 -
03/02:00am 26.5 - - - - ESE 35 41 19 22 1009.6 - -
03/01:30am 26.5 - - - - ESE 35 41 19 22 1009.9 - -
03/01:20am 26.8 - - - - SE 37 - 20 - - 1009.9 -
03/01:00am 26.7 - - - - ESE 35 41 19 22 1010.1 - -
03/12:30am 26.8 - - - - SE 35 41 19 22 1010.2 - -
03/12:20am 26.9 - - - - ESE 37 - 20 - - 1010.0 -
03/12:00am 26.8 - - - - ESE 33 39 18 21 1010.4 - -
 
Date/Time
EST
Temp
°C
App
Temp
°C
Dew
Point
Rel
Hum
%
Delta-T
°C
Wind Press
QNH
hPa
Press
MSL
hPa
Rain
since 9 am
mm
Dir
 
Spd
km/h
Gust
km/h
Spd
kts
Gust
kts
02/11:30pm 26.9 - - - - ESE 33 39 18 21 1010.6 - -
02/11:20pm 26.9 - - - - ESE 33 - 18 - - 1010.6 -
02/11:00pm 26.8 - - - - SE 35 39 19 21 1010.5 - -
02/10:30pm 27.0 - - - - ESE 37 41 20 22 1010.4 - -
02/10:20pm 26.9 - - - - ESE 37 - 20 - - 1010.2 -
02/10:00pm 26.9 - - - - SE 35 41 19 22 1010.4 - -
02/09:30pm 26.9 - - - - SE 35 43 19 23 1010.5 - -
02/09:20pm 27.0 - - - - SE 37 - 20 - - 1010.4 -
02/09:00pm 26.9 - - - - SE 33 39 18 21 1010.4 - -
02/08:30pm 26.9 - - - - SE 33 39 18 21 1010.0 - -
02/08:20pm 27.1 - - - - SE 33 - 18 - - 1009.8 -
02/08:00pm 26.9 - - - - ESE 30 35 16 19 1009.6 - -
02/07:30pm 26.9 - - - - ESE 33 37 18 20 1008.9 - -
02/07:20pm 26.9 - - - - SE 32 - 17 - - 1008.9 -
02/07:00pm 27.0 - - - - SE 32 37 17 20 1008.6 - -
02/06:30pm 27.0 - - - - SE 32 35 17 19 1008.5 - -
02/06:20pm 27.0 - - - - SE 32 - 17 - - 1008.4 -
02/06:00pm 26.7 - - - - SSE 24 28 13 15 1008.4 - -
02/05:30pm 27.1 - - - - SE 30 33 16 18 1008.1 - -
02/05:20pm 27.1 - - - - SE 30 - 16 - - 1008.1 -
02/05:00pm 27.2 - - - - SE 28 32 15 17 1007.9 - -
02/04:30pm 27.3 - - - - SSE 28 33 15 18 1007.7 - -
02/04:20pm 27.2 - - - - SE 28 - 15 - - 1007.7 -
02/04:00pm 27.2 - - - - SSE 28 32 15 17 1007.6 - -
02/03:30pm 27.1 - - - - SSE 30 35 16 19 1007.6 - -
02/03:20pm 27.2 - - - - SSE 28 - 15 - - 1007.6 -
02/03:00pm 27.2 - - - - SSE 30 33 16 18 1007.7 - -
02/02:30pm 27.1 - - - - SSE 30 35 16 19 1007.8 - -
02/02:20pm 27.0 - - - - SSE 28 - 15 - - 1007.8 -
02/02:00pm 27.1 - - - - SSE 28 32 15 17 1008.0 - -
02/01:30pm 27.1 - - - - SSE 22 28 12 15 1008.5 - -
02/01:20pm 27.0 - - - - SSE 22 - 12 - - 1008.6 -
02/01:00pm 27.1 - - - - SSE 20 26 11 14 1008.9 - -
02/12:30pm 27.0 - - - - SSE 20 26 11 14 1009.3 - -
02/12:20pm 26.8 - - - - SSE 22 - 12 - - 1009.4 -
02/12:00pm 26.8 - - - - SSE 20 24 11 13 1009.3 - -
02/11:30am 26.8 - - - - SSE 19 24 10 13 1009.7 - -
02/11:20am 26.9 - - - - SSE 20 - 11 - - 1009.8 -
02/11:00am 26.7 - - - - SSE 20 26 11 14 1010.0 - -
02/10:30am 26.6 - - - - SSE 19 24 10 13 1010.0 - -
02/10:20am 26.8 - - - - SE 19 - 10 - - 1009.9 -

Other Formats:

Comma delimited format used in spreadsheet applications
http://www.bom.gov.au/fwo/IDQ60801/IDQ60801.94371.axf

JavaScript Object Notation format (JSON) in row-major order
http://www.bom.gov.au/fwo/IDQ60801/IDQ60801.94371.json